sensor_id;sensor_type;location;lat;lon;timestamp;pressure;altitude;pressure_sealevel;temperature;humidity
7760;BME280;3924;48.830;9.262;2023-07-24T00:00:02;97994.47;;;19.94;68.31
7760;BME280;3924;48.830;9.262;2023-07-24T00:02:29;97907.97;;;19.91;68.31
7760;BME280;3924;48.830;9.262;2023-07-24T00:04:56;97820.56;;;19.81;68.62
7760;BME280;3924;48.830;9.262;2023-07-24T00:07:22;97852.69;;;19.74;68.95
7760;BME280;3924;48.830;9.262;2023-07-24T00:09:49;97922.53;;;19.69;69.01
7760;BME280;3924;48.830;9.262;2023-07-24T00:12:16;97916.78;;;19.55;69.30
7760;BME280;3924;48.830;9.262;2023-07-24T00:14:42;97891.56;;;19.49;69.57
7760;BME280;3924;48.830;9.262;2023-07-24T00:17:09;97879.03;;;19.52;69.72
7760;BME280;3924;48.830;9.262;2023-07-24T00:19:35;97886.06;;;19.49;69.62
7760;BME280;3924;48.830;9.262;2023-07-24T00:22:02;97881.91;;;19.36;70.24
7760;BME280;3924;48.830;9.262;2023-07-24T00:24:29;97870.91;;;19.36;70.16
7760;BME280;3924;48.830;9.262;2023-07-24T00:26:56;97862.59;;;19.32;70.19
7760;BME280;3924;48.830;9.262;2023-07-24T00:29:23;97851.19;;;19.30;70.47
7760;BME280;3924;48.830;9.262;2023-07-24T00:31:49;97851.91;;;19.27;70.44
7760;BME280;3924;48.830;9.262;2023-07-24T00:34:16;97860.91;;;19.24;70.68
7760;BME280;3924;48.830;9.262;2023-07-24T00:36:42;97830.66;;;19.24;70.89
7760;BME280;3924;48.830;9.262;2023-07-24T00:39:09;97843.91;;;19.19;71.09
7760;BME280;3924;48.830;9.262;2023-07-24T00:41:35;97841.13;;;19.15;71.21
7760;BME280;3924;48.830;9.262;2023-07-24T00:44:02;97830.97;;;19.19;71.22
7760;BME280;3924;48.830;9.262;2023-07-24T00:46:29;97826.72;;;19.22;71.47
7760;BME280;3924;48.830;9.262;2023-07-24T00:49:00;97827.81;;;19.17;71.65
7760;BME280;3924;48.830;9.262;2023-07-24T00:51:28;97810.16;;;19.18;71.75
7760;BME280;3924;48.830;9.262;2023-07-24T00:53:56;97815.28;;;19.20;71.75
7760;BME280;3924;48.830;9.262;2023-07-24T00:56:23;97828.34;;;19.26;71.87
7760;BME280;3924;48.830;9.262;2023-07-24T00:58:50;97814.09;;;19.21;71.82
7760;BME280;3924;48.830;9.262;2023-07-24T01:01:17;97807.78;;;19.17;71.80
7760;BME280;3924;48.830;9.262;2023-07-24T01:03:44;97802.66;;;19.15;72.04
7760;BME280;3924;48.830;9.262;2023-07-24T01:06:11;97808.50;;;19.13;72.06
7760;BME280;3924;48.830;9.262;2023-07-24T01:08:37;97794.72;;;19.10;71.98
7760;BME280;3924;48.830;9.262;2023-07-24T01:11:15;97788.78;;;19.08;72.13
7760;BME280;3924;48.830;9.262;2023-07-24T01:14:08;97790.00;;;19.10;72.20
7760;BME280;3924;48.830;9.262;2023-07-24T01:16:37;97789.22;;;19.10;72.24
7760;BME280;3924;48.830;9.262;2023-07-24T01:19:20;97780.19;;;19.09;72.43
7760;BME280;3924;48.830;9.262;2023-07-24T01:22:01;97777.81;;;19.08;72.63
7760;BME280;3924;48.830;9.262;2023-07-24T01:27:34;97777.34;;;19.06;72.51
7760;BME280;3924;48.830;9.262;2023-07-24T01:30:00;97773.34;;;19.00;72.71
7760;BME280;3924;48.830;9.262;2023-07-24T01:32:27;97776.16;;;19.03;72.85
7760;BME280;3924;48.830;9.262;2023-07-24T01:34:54;97769.41;;;19.01;72.81
7760;BME280;3924;48.830;9.262;2023-07-24T01:37:21;97769.00;;;18.99;72.97
7760;BME280;3924;48.830;9.262;2023-07-24T01:39:49;97772.50;;;18.96;73.41
7760;BME280;3924;48.830;9.262;2023-07-24T01:42:16;97787.03;;;18.96;73.51
7760;BME280;3924;48.830;9.262;2023-07-24T01:44:43;97782.69;;;18.95;73.51
7760;BME280;3924;48.830;9.262;2023-07-24T01:47:09;97775.97;;;18.93;73.28
7760;BME280;3924;48.830;9.262;2023-07-24T01:49:36;97786.94;;;18.93;73.30
7760;BME280;3924;48.830;9.262;2023-07-24T01:52:03;97783.00;;;18.90;73.46
7760;BME280;3924;48.830;9.262;2023-07-24T01:54:29;97779.03;;;18.88;73.43
7760;BME280;3924;48.830;9.262;2023-07-24T01:56:56;97786.13;;;18.89;73.30
7760;BME280;3924;48.830;9.262;2023-07-24T01:59:22;97779.03;;;18.88;73.26
7760;BME280;3924;48.830;9.262;2023-07-24T02:01:49;97774.69;;;18.86;73.37
7760;BME280;3924;48.830;9.262;2023-07-24T02:04:15;97770.66;;;18.80;73.50
7760;BME280;3924;48.830;9.262;2023-07-24T02:06:42;97771.75;;;18.76;73.62
7760;BME280;3924;48.830;9.262;2023-07-24T02:09:09;97768.63;;;18.77;73.89
7760;BME280;3924;48.830;9.262;2023-07-24T02:11:35;97775.72;;;18.78;74.14
7760;BME280;3924;48.830;9.262;2023-07-24T02:14:02;97769.44;;;18.78;73.85
7760;BME280;3924;48.830;9.262;2023-07-24T02:16:28;97770.22;;;18.78;74.02
7760;BME280;3924;48.830;9.262;2023-07-24T02:18:55;97768.63;;;18.77;74.18
7760;BME280;3924;48.830;9.262;2023-07-24T02:21:22;97761.56;;;18.76;74.18
7760;BME280;3924;48.830;9.262;2023-07-24T02:23:48;97757.66;;;18.77;74.37
7760;BME280;3924;48.830;9.262;2023-07-24T02:26:15;97759.25;;;18.78;74.40
7760;BME280;3924;48.830;9.262;2023-07-24T02:28:41;97759.25;;;18.78;74.55
7760;BME280;3924;48.830;9.262;2023-07-24T02:31:08;97761.19;;;18.78;74.40
7760;BME280;3924;48.830;9.262;2023-07-24T02:33:34;97758.81;;;18.76;74.67
7760;BME280;3924;48.830;9.262;2023-07-24T02:36:01;97773.75;;;18.79;74.63
7760;BME280;3924;48.830;9.262;2023-07-24T02:38:28;97771.00;;;18.79;74.89
7760;BME280;3924;48.830;9.262;2023-07-24T02:40:54;97773.47;;;18.84;74.62
7760;BME280;3924;48.830;9.262;2023-07-24T02:43:21;97758.56;;;18.85;74.62
7760;BME280;3924;48.830;9.262;2023-07-24T02:45:47;97744.34;;;18.79;74.48
7760;BME280;3924;48.830;9.262;2023-07-24T02:48:14;97743.22;;;18.80;75.03
7760;BME280;3924;48.830;9.262;2023-07-24T02:50:40;97733.72;;;18.78;74.70
7760;BME280;3924;48.830;9.262;2023-07-24T02:53:08;97735.28;;;18.75;74.96
7760;BME280;3924;48.830;9.262;2023-07-24T02:55:34;97733.72;;;18.78;74.81
7760;BME280;3924;48.830;9.262;2023-07-24T02:58:01;97721.53;;;18.75;74.71
7760;BME280;3924;48.830;9.262;2023-07-24T03:00:28;97721.47;;;18.72;75.10
7760;BME280;3924;48.830;9.262;2023-07-24T03:02:54;97726.47;;;18.66;74.98
7760;BME280;3924;48.830;9.262;2023-07-24T03:05:21;97737.78;;;18.65;75.12
7760;BME280;3924;48.830;9.262;2023-07-24T03:07:47;97726.47;;;18.66;75.32
7760;BME280;3924;48.830;9.262;2023-07-24T03:10:14;97723.72;;;18.66;75.15
7760;BME280;3924;48.830;9.262;2023-07-24T03:12:40;97712.72;;;18.66;75.20
7760;BME280;3924;48.830;9.262;2023-07-24T03:15:07;97708.84;;;18.67;75.01
7760;BME280;3924;48.830;9.262;2023-07-24T03:17:33;97711.91;;;18.66;75.11
7760;BME280;3924;48.830;9.262;2023-07-24T03:20:08;97713.59;;;18.70;74.98
7760;BME280;3924;48.830;9.262;2023-07-24T03:22:35;97717.13;;;18.71;74.91
7760;BME280;3924;48.830;9.262;2023-07-24T03:25:02;97699.72;;;18.63;75.12
7760;BME280;3924;48.830;9.262;2023-07-24T03:27:28;97687.41;;;18.53;75.37
7760;BME280;3924;48.830;9.262;2023-07-24T03:29:55;97688.53;;;18.52;75.30
7760;BME280;3924;48.830;9.262;2023-07-24T03:32:21;97703.44;;;18.51;75.28
7760;BME280;3924;48.830;9.262;2023-07-24T03:34:48;97712.91;;;18.54;75.27
7760;BME280;3924;48.830;9.262;2023-07-24T03:37:14;97718.75;;;18.52;75.35
7760;BME280;3924;48.830;9.262;2023-07-24T03:39:40;97717.94;;;18.52;75.16
7760;BME280;3924;48.830;9.262;2023-07-24T03:42:10;97714.38;;;18.48;75.31
7760;BME280;3924;48.830;9.262;2023-07-24T03:44:36;97710.75;;;18.44;75.36
7760;BME280;3924;48.830;9.262;2023-07-24T03:47:02;97704.44;;;18.40;75.29
7760;BME280;3924;48.830;9.262;2023-07-24T03:49:29;97711.50;;;18.41;75.63
7760;BME280;3924;48.830;9.262;2023-07-24T03:51:56;97714.25;;;18.41;75.45
7760;BME280;3924;48.830;9.262;2023-07-24T03:54:22;97699.78;;;18.44;75.65
7760;BME280;3924;48.830;9.262;2023-07-24T03:56:48;97701.06;;;18.50;75.49
7760;BME280;3924;48.830;9.262;2023-07-24T03:59:15;97702.34;;;18.56;75.41
7760;BME280;3924;48.830;9.262;2023-07-24T04:01:41;97705.13;;;18.59;75.12
7760;BME280;3924;48.830;9.262;2023-07-24T04:04:08;97704.06;;;18.64;75.13
7760;BME280;3924;48.830;9.262;2023-07-24T04:06:35;97697.41;;;18.65;75.17
7760;BME280;3924;48.830;9.262;2023-07-24T04:09:01;97696.25;;;18.66;75.09
7760;BME280;3924;48.830;9.262;2023-07-24T04:11:28;97714.34;;;18.67;75.12
7760;BME280;3924;48.830;9.262;2023-07-24T04:13:54;97708.91;;;18.71;75.29
7760;BME280;3924;48.830;9.262;2023-07-24T04:16:21;97700.72;;;18.74;74.99
7760;BME280;3924;48.830;9.262;2023-07-24T04:18:47;97700.47;;;18.83;74.86
7760;BME280;3924;48.830;9.262;2023-07-24T04:21:14;97698.91;;;18.82;74.72
7760;BME280;3924;48.830;9.262;2023-07-24T04:23:40;97692.59;;;18.81;74.97
7760;BME280;3924;48.830;9.262;2023-07-24T04:26:06;97689.50;;;18.83;74.96
7760;BME280;3924;48.830;9.262;2023-07-24T04:28:35;97683.31;;;18.90;74.79
7760;BME280;3924;48.830;9.262;2023-07-24T04:31:01;97675.44;;;18.88;74.80
7760;BME280;3924;48.830;9.262;2023-07-24T04:33:28;97680.56;;;18.90;74.94
7760;BME280;3924;48.830;9.262;2023-07-24T04:35:56;97671.56;;;18.93;74.78
7760;BME280;3924;48.830;9.262;2023-07-24T04:38:23;97659.88;;;18.96;74.94
7760;BME280;3924;48.830;9.262;2023-07-24T04:40:49;97637.88;;;18.96;74.59
7760;BME280;3924;48.830;9.262;2023-07-24T04:43:16;97641.91;;;19.02;74.54
7760;BME280;3924;48.830;9.262;2023-07-24T04:45:42;97650.59;;;19.07;74.26
7760;BME280;3924;48.830;9.262;2023-07-24T04:48:09;97645.97;;;19.11;74.06
7760;BME280;3924;48.830;9.262;2023-07-24T04:50:35;97655.84;;;19.16;74.11
7760;BME280;3924;48.830;9.262;2023-07-24T04:53:02;97658.25;;;19.21;74.09
7760;BME280;3924;48.830;9.262;2023-07-24T04:55:28;97653.19;;;19.23;73.74
7760;BME280;3924;48.830;9.262;2023-07-24T04:57:55;97661.84;;;19.25;73.72
7760;BME280;3924;48.830;9.262;2023-07-24T05:00:21;97655.94;;;19.23;73.77
7760;BME280;3924;48.830;9.262;2023-07-24T05:02:48;97650.44;;;19.23;73.72
7760;BME280;3924;48.830;9.262;2023-07-24T05:05:14;97653.97;;;19.24;73.86
7760;BME280;3924;48.830;9.262;2023-07-24T05:07:41;97654.38;;;19.22;73.78
7760;BME280;3924;48.830;9.262;2023-07-24T05:10:07;97646.94;;;19.26;73.82
7760;BME280;3924;48.830;9.262;2023-07-24T05:12:34;97641.50;;;19.30;73.52
7760;BME280;3924;48.830;9.262;2023-07-24T05:15:01;97647.03;;;19.33;73.31
7760;BME280;3924;48.830;9.262;2023-07-24T05:17:28;97645.56;;;19.39;73.26
7760;BME280;3924;48.830;9.262;2023-07-24T05:19:55;97640.19;;;19.50;73.10
7760;BME280;3924;48.830;9.262;2023-07-24T05:22:21;97639.63;;;19.64;72.88
7760;BME280;3924;48.830;9.262;2023-07-24T05:24:48;97642.84;;;19.73;72.51
7760;BME280;3924;48.830;9.262;2023-07-24T05:27:14;97638.59;;;19.79;72.23
7760;BME280;3924;48.830;9.262;2023-07-24T05:29:42;97650.44;;;19.83;72.30
7760;BME280;3924;48.830;9.262;2023-07-24T05:32:09;97654.78;;;19.84;72.03
7760;BME280;3924;48.830;9.262;2023-07-24T05:34:36;97654.00;;;19.84;72.16
7760;BME280;3924;48.830;9.262;2023-07-24T05:37:05;97673.59;;;19.82;72.21
7760;BME280;3924;48.830;9.262;2023-07-24T05:39:31;97676.69;;;19.77;72.13
7760;BME280;3924;48.830;9.262;2023-07-24T05:41:58;97683.00;;;19.78;72.05
7760;BME280;3924;48.830;9.262;2023-07-24T05:44:24;97683.34;;;19.76;71.94
7760;BME280;3924;48.830;9.262;2023-07-24T05:46:51;97686.47;;;19.75;72.23
7760;BME280;3924;48.830;9.262;2023-07-24T05:49:17;97693.94;;;19.74;72.50
7760;BME280;3924;48.830;9.262;2023-07-24T05:51:44;97694.72;;;19.75;72.25
7760;BME280;3924;48.830;9.262;2023-07-24T05:54:10;97691.66;;;19.80;72.12
7760;BME280;3924;48.830;9.262;2023-07-24T05:56:37;97704.28;;;19.84;71.90
7760;BME280;3924;48.830;9.262;2023-07-24T05:59:06;97706.66;;;19.86;71.66
7760;BME280;3924;48.830;9.262;2023-07-24T06:01:32;97694.97;;;19.92;71.54
7760;BME280;3924;48.830;9.262;2023-07-24T06:03:59;97706.78;;;19.97;71.24
7760;BME280;3924;48.830;9.262;2023-07-24T06:06:25;97703.69;;;20.02;71.06
7760;BME280;3924;48.830;9.262;2023-07-24T06:08:52;97698.59;;;20.04;70.84
7760;BME280;3924;48.830;9.262;2023-07-24T06:11:18;97699.44;;;20.08;70.88
7760;BME280;3924;48.830;9.262;2023-07-24T06:13:45;97706.53;;;20.09;70.59
7760;BME280;3924;48.830;9.262;2023-07-24T06:16:11;97701.03;;;20.09;70.46
7760;BME280;3924;48.830;9.262;2023-07-24T06:18:40;97690.44;;;20.11;70.33
7760;BME280;3924;48.830;9.262;2023-07-24T06:21:06;97684.97;;;20.14;70.37
7760;BME280;3924;48.830;9.262;2023-07-24T06:23:33;97686.59;;;20.19;70.07
7760;BME280;3924;48.830;9.262;2023-07-24T06:25:59;97692.56;;;20.25;69.89
7760;BME280;3924;48.830;9.262;2023-07-24T06:28:26;97689.44;;;20.30;69.66
7760;BME280;3924;48.830;9.262;2023-07-24T06:30:52;97685.97;;;20.33;69.53
7760;BME280;3924;48.830;9.262;2023-07-24T06:33:20;97678.16;;;20.38;69.26
7760;BME280;3924;48.830;9.262;2023-07-24T06:35:50;97671.13;;;20.44;68.92
7760;BME280;3924;48.830;9.262;2023-07-24T06:38:17;97661.00;;;20.52;68.73
7760;BME280;3924;48.830;9.262;2023-07-24T06:40:43;97666.56;;;20.59;68.52
7760;BME280;3924;48.830;9.262;2023-07-24T06:43:10;97660.31;;;20.66;68.25
7760;BME280;3924;48.830;9.262;2023-07-24T06:45:36;97648.94;;;20.71;68.37
7760;BME280;3924;48.830;9.262;2023-07-24T06:48:03;97652.53;;;20.79;67.99
7760;BME280;3924;48.830;9.262;2023-07-24T06:50:30;97639.59;;;20.83;67.64
7760;BME280;3924;48.830;9.262;2023-07-24T06:52:56;97640.03;;;20.88;67.52
7760;BME280;3924;48.830;9.262;2023-07-24T06:55:23;97647.94;;;20.93;67.43
7760;BME280;3924;48.830;9.262;2023-07-24T06:57:49;97652.66;;;20.96;67.38
7760;BME280;3924;48.830;9.262;2023-07-24T07:00:16;97647.56;;;20.95;67.09
7760;BME280;3924;48.830;9.262;2023-07-24T07:02:43;97648.31;;;20.92;67.15
7760;BME280;3924;48.830;9.262;2023-07-24T07:05:09;97660.50;;;20.91;67.27
7760;BME280;3924;48.830;9.262;2023-07-24T07:07:36;97636.50;;;20.91;67.08
7760;BME280;3924;48.830;9.262;2023-07-24T07:10:03;97632.56;;;20.92;66.87
7760;BME280;3924;48.830;9.262;2023-07-24T07:12:29;97643.63;;;20.96;66.87
7760;BME280;3924;48.830;9.262;2023-07-24T07:14:56;97648.75;;;20.97;66.76
7760;BME280;3924;48.830;9.262;2023-07-24T07:17:22;97647.16;;;20.96;66.41
7760;BME280;3924;48.830;9.262;2023-07-24T07:19:49;97645.22;;;21.00;66.39
7760;BME280;3924;48.830;9.262;2023-07-24T07:22:15;97661.00;;;21.03;66.33
7760;BME280;3924;48.830;9.262;2023-07-24T07:24:42;97668.47;;;21.03;66.26
7760;BME280;3924;48.830;9.262;2023-07-24T07:27:10;97670.81;;;21.01;66.40
7760;BME280;3924;48.830;9.262;2023-07-24T07:29:36;97680.28;;;21.00;66.14
7760;BME280;3924;48.830;9.262;2023-07-24T07:32:03;97684.16;;;20.99;66.27
7760;BME280;3924;48.830;9.262;2023-07-24T07:34:29;97687.31;;;20.97;66.37
7760;BME280;3924;48.830;9.262;2023-07-24T07:36:56;97692.44;;;20.99;66.17
7760;BME280;3924;48.830;9.262;2023-07-24T07:39:22;97695.97;;;20.99;66.04
7760;BME280;3924;48.830;9.262;2023-07-24T07:41:49;97703.09;;;21.00;nan
7760;BME280;3924;48.830;9.262;2023-07-24T07:44:19;97704.69;;;21.01;65.91
7760;BME280;3924;48.830;9.262;2023-07-24T07:46:45;97716.13;;;21.03;66.15
7760;BME280;3924;48.830;9.262;2023-07-24T07:49:12;97725.97;;;21.04;65.93
7760;BME280;3924;48.830;9.262;2023-07-24T07:51:39;97729.13;;;21.07;65.83
7760;BME280;3924;48.830;9.262;2023-07-24T07:54:06;97729.56;;;21.12;65.70
7760;BME280;3924;48.830;9.262;2023-07-24T07:56:32;97729.59;;;21.16;65.54
7760;BME280;3924;48.830;9.262;2023-07-24T07:58:59;97730.03;;;21.21;65.59
7760;BME280;3924;48.830;9.262;2023-07-24T08:01:25;97741.88;;;21.25;65.36
7760;BME280;3924;48.830;9.262;2023-07-24T08:03:52;97738.72;;;21.27;65.15
7760;BME280;3924;48.830;9.262;2023-07-24T08:06:18;97748.97;;;21.26;65.41
7760;BME280;3924;48.830;9.262;2023-07-24T08:08:45;97764.72;;;21.26;65.41
7760;BME280;3924;48.830;9.262;2023-07-24T08:11:11;97772.59;;;21.24;65.67
7760;BME280;3924;48.830;9.262;2023-07-24T08:13:38;97797.78;;;21.22;65.46
7760;BME280;3924;48.830;9.262;2023-07-24T08:16:04;97786.72;;;21.19;65.71
7760;BME280;3924;48.830;9.262;2023-07-24T08:18:31;97777.22;;;21.13;65.87
7760;BME280;3924;48.830;9.262;2023-07-24T08:20:58;97762.19;;;21.07;66.23
7760;BME280;3924;48.830;9.262;2023-07-24T08:23:24;97747.56;;;20.99;66.21
7760;BME280;3924;48.830;9.262;2023-07-24T08:25:54;97747.88;;;20.90;66.54
7760;BME280;3924;48.830;9.262;2023-07-24T08:28:21;97747.81;;;20.83;67.10
7760;BME280;3924;48.830;9.262;2023-07-24T08:30:57;97748.94;;;20.75;67.31
7760;BME280;3924;48.830;9.262;2023-07-24T08:33:24;97728.38;;;20.65;67.54
7760;BME280;3924;48.830;9.262;2023-07-24T08:36:01;97700.28;;;20.49;68.28
7760;BME280;3924;48.830;9.262;2023-07-24T08:38:28;97713.22;;;20.45;68.54
7760;BME280;3924;48.830;9.262;2023-07-24T08:41:06;97702.94;;;20.38;68.98
7760;BME280;3924;48.830;9.262;2023-07-24T08:43:34;97679.66;;;20.32;69.24
7760;BME280;3924;48.830;9.262;2023-07-24T08:46:01;97679.66;;;20.32;69.78
7760;BME280;3924;48.830;9.262;2023-07-24T08:48:30;97666.31;;;20.34;69.90
7760;BME280;3924;48.830;9.262;2023-07-24T08:50:57;97660.06;;;20.41;70.00
7760;BME280;3924;48.830;9.262;2023-07-24T08:53:25;97634.97;;;20.46;70.37
7760;BME280;3924;48.830;9.262;2023-07-24T08:55:52;97626.72;;;20.49;70.45
7760;BME280;3924;48.830;9.262;2023-07-24T08:58:19;97637.78;;;20.53;70.55
7760;BME280;3924;48.830;9.262;2023-07-24T09:00:45;97654.00;;;20.62;70.49
7760;BME280;3924;48.830;9.262;2023-07-24T09:03:12;97647.81;;;20.75;70.55
7760;BME280;3924;48.830;9.262;2023-07-24T09:05:38;97642.38;;;20.90;70.54
7760;BME280;3924;48.830;9.262;2023-07-24T09:08:05;97636.16;;;21.00;70.47
7760;BME280;3924;48.830;9.262;2023-07-24T09:10:31;97644.88;;;21.09;70.41
7760;BME280;3924;48.830;9.262;2023-07-24T09:12:58;97649.66;;;21.19;70.51
7760;BME280;3924;48.830;9.262;2023-07-24T09:15:25;97659.59;;;21.31;70.37
7760;BME280;3924;48.830;9.262;2023-07-24T09:17:52;97665.59;;;21.47;70.07
7760;BME280;3924;48.830;9.262;2023-07-24T09:20:20;97660.13;;;21.62;70.00
7760;BME280;3924;48.830;9.262;2023-07-24T09:22:57;97657.06;;;21.77;69.81
7760;BME280;3924;48.830;9.262;2023-07-24T09:25:42;97653.13;;;21.82;69.75
7760;BME280;3924;48.830;9.262;2023-07-24T09:28:11;97642.13;;;21.93;69.74
7760;BME280;3924;48.830;9.262;2023-07-24T09:30:39;97654.78;;;21.97;69.71
7760;BME280;3924;48.830;9.262;2023-07-24T09:33:06;97639.78;;;21.98;69.96
7760;BME280;3924;48.830;9.262;2023-07-24T09:35:33;97630.75;;;22.08;69.71
7760;BME280;3924;48.830;9.262;2023-07-24T09:38:03;97638.28;;;22.19;69.69
7760;BME280;3924;48.830;9.262;2023-07-24T09:40:41;97646.56;;;22.22;69.69
7760;BME280;3924;48.830;9.262;2023-07-24T09:43:24;97652.06;;;22.11;69.78
7760;BME280;3924;48.830;9.262;2023-07-24T09:46:06;97670.56;;;21.97;70.13
7760;BME280;3924;48.830;9.262;2023-07-24T09:48:37;97666.16;;;21.85;70.54
7760;BME280;3924;48.830;9.262;2023-07-24T09:51:08;97671.25;;;21.76;70.93
7760;BME280;3924;48.830;9.262;2023-07-24T09:53:47;97668.44;;;21.65;71.21
7760;BME280;3924;48.830;9.262;2023-07-24T09:56:19;97686.16;;;21.61;71.30
7760;BME280;3924;48.830;9.262;2023-07-24T09:58:57;97690.50;;;21.58;71.48
7760;BME280;3924;48.830;9.262;2023-07-24T10:01:25;97695.56;;;21.52;71.91
7760;BME280;3924;48.830;9.262;2023-07-24T10:03:53;97716.84;;;21.48;72.16
7760;BME280;3924;48.830;9.262;2023-07-24T10:06:20;97720.75;;;21.47;72.03
7760;BME280;3924;48.830;9.262;2023-07-24T10:08:48;97718.38;;;21.46;72.24
7760;BME280;3924;48.830;9.262;2023-07-24T10:11:15;97727.84;;;21.41;72.39
7760;BME280;3924;48.830;9.262;2023-07-24T10:13:41;97725.44;;;21.36;72.63
7760;BME280;3924;48.830;9.262;2023-07-24T10:16:08;97736.84;;;21.35;72.79
7760;BME280;3924;48.830;9.262;2023-07-24T10:18:44;97733.28;;;21.34;72.96
7760;BME280;3924;48.830;9.262;2023-07-24T10:21:12;97747.84;;;21.31;72.93
7760;BME280;3924;48.830;9.262;2023-07-24T10:23:45;97740.34;;;21.28;73.15
7760;BME280;3924;48.830;9.262;2023-07-24T10:26:15;97744.63;;;21.22;73.39
7760;BME280;3924;48.830;9.262;2023-07-24T10:28:47;97736.69;;;21.17;73.57
7760;BME280;3924;48.830;9.262;2023-07-24T10:31:22;97748.06;;;21.12;73.71
7760;BME280;3924;48.830;9.262;2023-07-24T10:33:50;97747.25;;;21.08;73.91
7760;BME280;3924;48.830;9.262;2023-07-24T10:36:19;97738.56;;;21.06;73.78
7760;BME280;3924;48.830;9.262;2023-07-24T10:38:55;97739.34;;;21.02;74.13
7760;BME280;3924;48.830;9.262;2023-07-24T10:41:21;97748.34;;;20.99;74.57
7760;BME280;3924;48.830;9.262;2023-07-24T10:43:50;97757.00;;;20.94;74.67
7760;BME280;3924;48.830;9.262;2023-07-24T10:46:18;97772.69;;;20.90;74.72
7760;BME280;3924;48.830;9.262;2023-07-24T10:48:50;97769.13;;;20.86;74.78
7760;BME280;3924;48.830;9.262;2023-07-24T10:51:17;97765.94;;;20.84;75.06
7760;BME280;3924;48.830;9.262;2023-07-24T10:53:46;97764.34;;;20.80;75.18
7760;BME280;3924;48.830;9.262;2023-07-24T10:56:13;97778.03;;;20.72;75.56
7760;BME280;3924;48.830;9.262;2023-07-24T10:58:40;97780.34;;;20.67;75.58
7760;BME280;3924;48.830;9.262;2023-07-24T11:01:08;97781.47;;;20.62;75.87
7760;BME280;3924;48.830;9.262;2023-07-24T11:03:36;97794.78;;;20.57;76.20
7760;BME280;3924;48.830;9.262;2023-07-24T11:06:03;97789.63;;;20.52;76.48
7760;BME280;3924;48.830;9.262;2023-07-24T11:08:30;97790.38;;;20.48;76.49
7760;BME280;3924;48.830;9.262;2023-07-24T11:10:58;97785.63;;;20.45;76.78
7760;BME280;3924;48.830;9.262;2023-07-24T11:13:26;97766.28;;;20.42;77.02
7760;BME280;3924;48.830;9.262;2023-07-24T11:15:54;97768.63;;;20.40;76.94
7760;BME280;3924;48.830;9.262;2023-07-24T11:18:21;97746.97;;;20.38;77.16
7760;BME280;3924;48.830;9.262;2023-07-24T11:20:51;97722.56;;;20.37;77.30
7760;BME280;3924;48.830;9.262;2023-07-24T11:23:19;97692.66;;;20.35;77.24
7760;BME280;3924;48.830;9.262;2023-07-24T11:25:46;97685.19;;;20.36;77.48
7760;BME280;3924;48.830;9.262;2023-07-24T11:28:14;97691.47;;;20.36;77.68
7760;BME280;3924;48.830;9.262;2023-07-24T11:30:42;97676.13;;;20.35;77.84
7760;BME280;3924;48.830;9.262;2023-07-24T11:33:11;97675.69;;;20.30;78.02
7760;BME280;3924;48.830;9.262;2023-07-24T11:35:41;97666.25;;;20.31;77.89
7760;BME280;3924;48.830;9.262;2023-07-24T11:38:09;97611.25;;;20.34;77.81
7760;BME280;3924;48.830;9.262;2023-07-24T11:40:40;97590.44;;;20.40;77.88
7760;BME280;3924;48.830;9.262;2023-07-24T11:43:18;97608.72;;;20.59;77.84
7760;BME280;3924;48.830;9.262;2023-07-24T11:45:46;97633.72;;;20.91;77.34
7760;BME280;3924;48.830;9.262;2023-07-24T11:48:23;97630.91;;;21.46;76.32
7760;BME280;3924;48.830;9.262;2023-07-24T11:50:54;97627.56;;;21.99;75.15
7760;BME280;3924;48.830;9.262;2023-07-24T11:53:26;97619.34;;;22.17;74.83
7760;BME280;3924;48.830;9.262;2023-07-24T11:56:13;97626.44;;;22.11;74.81
7760;BME280;3924;48.830;9.262;2023-07-24T11:58:40;97638.16;;;21.87;75.30
7760;BME280;3924;48.830;9.262;2023-07-24T12:01:07;97638.88;;;21.58;76.06
7760;BME280;3924;48.830;9.262;2023-07-24T12:03:33;97658.44;;;21.32;76.61
7760;BME280;3924;48.830;9.262;2023-07-24T12:06:02;97674.00;;;21.07;77.07
7760;BME280;3924;48.830;9.262;2023-07-24T12:08:33;97654.97;;;20.87;77.59
7760;BME280;3924;48.830;9.262;2023-07-24T12:11:01;97660.38;;;20.73;77.86
7760;BME280;3924;48.830;9.262;2023-07-24T12:13:28;97649.22;;;20.59;77.92
7760;BME280;3924;48.830;9.262;2023-07-24T12:15:55;97637.41;;;20.55;78.46
7760;BME280;3924;48.830;9.262;2023-07-24T12:18:22;97653.47;;;20.49;78.34
7760;BME280;3924;48.830;9.262;2023-07-24T12:20:48;97679.81;;;20.46;78.66
7760;BME280;3924;48.830;9.262;2023-07-24T12:23:15;97667.16;;;20.42;78.43
7760;BME280;3924;48.830;9.262;2023-07-24T12:25:42;97678.25;;;20.45;78.65
7760;BME280;3924;48.830;9.262;2023-07-24T12:28:09;97675.91;;;20.47;78.74
7760;BME280;3924;48.830;9.262;2023-07-24T12:30:35;97674.31;;;20.46;78.51
7760;BME280;3924;48.830;9.262;2023-07-24T12:33:02;97679.47;;;20.52;78.53
7760;BME280;3924;48.830;9.262;2023-07-24T12:35:28;97687.72;;;20.52;78.54
7760;BME280;3924;48.830;9.262;2023-07-24T12:37:55;97685.03;;;20.59;78.68
7760;BME280;3924;48.830;9.262;2023-07-24T12:40:21;97678.38;;;20.63;78.46
7760;BME280;3924;48.830;9.262;2023-07-24T12:42:48;97668.94;;;20.64;78.32
7760;BME280;3924;48.830;9.262;2023-07-24T12:45:14;97663.47;;;20.68;78.39
7760;BME280;3924;48.830;9.262;2023-07-24T12:47:41;97665.03;;;20.65;78.34
7760;BME280;3924;48.830;9.262;2023-07-24T12:50:08;97666.19;;;20.64;78.41
7760;BME280;3924;48.830;9.262;2023-07-24T12:52:34;97660.72;;;20.68;78.38
7760;BME280;3924;48.830;9.262;2023-07-24T12:55:01;97650.16;;;20.77;78.32
7760;BME280;3924;48.830;9.262;2023-07-24T12:57:29;97633.72;;;20.91;78.14
7760;BME280;3924;48.830;9.262;2023-07-24T12:59:55;97641.72;;;21.07;77.73
7760;BME280;3924;48.830;9.262;2023-07-24T13:02:22;97631.63;;;21.29;77.25
7760;BME280;3924;48.830;9.262;2023-07-24T13:04:48;97610.03;;;21.42;76.99
7760;BME280;3924;48.830;9.262;2023-07-24T13:07:15;97621.09;;;21.52;76.75
7760;BME280;3924;48.830;9.262;2023-07-24T13:09:42;97602.59;;;21.60;76.70
7760;BME280;3924;48.830;9.262;2023-07-24T13:12:09;97599.09;;;21.70;76.67
7760;BME280;3924;48.830;9.262;2023-07-24T13:14:36;97616.84;;;21.69;76.43
7760;BME280;3924;48.830;9.262;2023-07-24T13:17:06;97606.56;;;21.66;76.48
7760;BME280;3924;48.830;9.262;2023-07-24T13:19:33;97610.91;;;21.64;76.51
7760;BME280;3924;48.830;9.262;2023-07-24T13:22:00;97616.06;;;21.69;76.62
7760;BME280;3924;48.830;9.262;2023-07-24T13:24:26;97612.13;;;21.77;76.23
7760;BME280;3924;48.830;9.262;2023-07-24T13:26:53;97600.31;;;21.83;76.22